Impacts TAF Board INFO
FOR SITUATIONAL AWARENESS. NOT TO BE USED FOR FLIGHT PLANNING PURPOSES.
IDs:

KJAN - Jackson/Evers Intl, MS, US

Issued at 0607 UTC 23 Feb 2018
Updated at 0834 UTC 23 Feb 2018
Potential Impact None Slight Moderate High
Time<<23/21Z 23/22Z 23/23Z 24/00Z 24/01Z 24/02Z 24/03Z 24/04Z 24/05Z 24/06Z 24/07Z 24/08Z 24/09Z>>
Type PRVL PRVL PRVL PRVL PRVL PRVL PRVL PRVL PRVL
VIS >6 >6 >6 5 5 5 5 5 5
CIG 15 35 35 35 35 35 35 35 35
Cover BKN BKN BKN BKN BKN BKN BKN BKN BKN
FltCat MVFR VFR VFR MVFR MVFR MVFR MVFR MVFR MVFR
WX -- VCTS VCTS -SHRA VCTS -SHRA VCTS -SHRA VCTS -SHRA VCTS -SHRA VCTS -SHRA VCTS
WDir 160 150 150 160 160 160 160 160 160
WSpd 8 6 6 8 8 8 8 8 8
WGst -- -- -- -- -- -- -- -- --

Raw TAF
KJAN 230607Z 2306/2406 18010KT P6SM SCT015
  FM231100 14003KT 2SM BR BKN008
  FM231500 16008KT P6SM SCT010 BKN015
  FM232200 15006KT P6SM VCTS BKN035CB
  FM240000 16008KT 5SM -SHRA VCTS BKN035CB


METAR Board
Radar Display
Forecast Discussion

FOR SITUATIONAL AWARENESS. NOT TO BE USED FOR FLIGHT PLANNING PURPOSES.